sensor_id;sensor_type;location;lat;lon;timestamp;temperature;humidity
8832;DHT22;4452;50.756;4.472;2022-12-07T00:01:28;5.20;99.90
8832;DHT22;4452;50.756;4.472;2022-12-07T00:03:56;5.20;99.90
8832;DHT22;4452;50.756;4.472;2022-12-07T00:06:26;5.10;99.90
8832;DHT22;4452;50.756;4.472;2022-12-07T00:08:52;5.10;99.90
8832;DHT22;4452;50.756;4.472;2022-12-07T00:11:21;5.10;99.90
8832;DHT22;4452;50.756;4.472;2022-12-07T00:13:52;5.00;99.90
8832;DHT22;4452;50.756;4.472;2022-12-07T00:16:20;5.00;99.90
8832;DHT22;4452;50.756;4.472;2022-12-07T00:18:46;4.90;99.90
8832;DHT22;4452;50.756;4.472;2022-12-07T00:21:18;4.90;99.90
8832;DHT22;4452;50.756;4.472;2022-12-07T00:23:45;4.90;99.90
8832;DHT22;4452;50.756;4.472;2022-12-07T00:26:13;4.90;99.90
8832;DHT22;4452;50.756;4.472;2022-12-07T00:28:39;4.90;99.90
8832;DHT22;4452;50.756;4.472;2022-12-07T00:31:10;4.80;99.90
8832;DHT22;4452;50.756;4.472;2022-12-07T00:33:36;4.80;99.90
8832;DHT22;4452;50.756;4.472;2022-12-07T00:36:06;4.70;99.90
8832;DHT22;4452;50.756;4.472;2022-12-07T00:38:33;4.60;99.90
8832;DHT22;4452;50.756;4.472;2022-12-07T00:41:02;4.60;99.90
8832;DHT22;4452;50.756;4.472;2022-12-07T00:43:28;4.50;99.90
8832;DHT22;4452;50.756;4.472;2022-12-07T00:45:54;4.50;99.90
8832;DHT22;4452;50.756;4.472;2022-12-07T00:48:21;4.50;99.90
8832;DHT22;4452;50.756;4.472;2022-12-07T00:50:47;4.40;99.90
8832;DHT22;4452;50.756;4.472;2022-12-07T00:53:13;4.40;99.90
8832;DHT22;4452;50.756;4.472;2022-12-07T00:55:39;4.40;99.90
8832;DHT22;4452;50.756;4.472;2022-12-07T00:58:05;4.40;99.90
8832;DHT22;4452;50.756;4.472;2022-12-07T01:00:30;4.30;99.90
8832;DHT22;4452;50.756;4.472;2022-12-07T01:02:56;4.30;99.90
8832;DHT22;4452;50.756;4.472;2022-12-07T01:05:21;4.30;99.90
8832;DHT22;4452;50.756;4.472;2022-12-07T01:07:47;4.30;99.90
8832;DHT22;4452;50.756;4.472;2022-12-07T01:10:14;4.30;99.90
8832;DHT22;4452;50.756;4.472;2022-12-07T01:12:40;4.20;99.90
8832;DHT22;4452;50.756;4.472;2022-12-07T01:15:06;4.20;99.90
8832;DHT22;4452;50.756;4.472;2022-12-07T01:17:32;4.20;99.90
8832;DHT22;4452;50.756;4.472;2022-12-07T01:19:59;4.20;99.90
8832;DHT22;4452;50.756;4.472;2022-12-07T01:22:24;4.20;99.90
8832;DHT22;4452;50.756;4.472;2022-12-07T01:24:50;4.30;99.90
8832;DHT22;4452;50.756;4.472;2022-12-07T01:27:16;4.30;99.90
8832;DHT22;4452;50.756;4.472;2022-12-07T01:29:41;4.40;99.90
8832;DHT22;4452;50.756;4.472;2022-12-07T01:32:07;4.40;99.90
8832;DHT22;4452;50.756;4.472;2022-12-07T01:34:33;4.40;99.90
8832;DHT22;4452;50.756;4.472;2022-12-07T01:36:58;4.50;99.90
8832;DHT22;4452;50.756;4.472;2022-12-07T01:39:24;4.50;99.90
8832;DHT22;4452;50.756;4.472;2022-12-07T01:41:50;4.50;99.90
8832;DHT22;4452;50.756;4.472;2022-12-07T01:44:27;4.60;99.90
8832;DHT22;4452;50.756;4.472;2022-12-07T01:47:01;4.60;99.90
8832;DHT22;4452;50.756;4.472;2022-12-07T01:49:40;4.60;99.90
8832;DHT22;4452;50.756;4.472;2022-12-07T01:54:34;4.60;99.90
8832;DHT22;4452;50.756;4.472;2022-12-07T01:57:00;4.60;99.90
8832;DHT22;4452;50.756;4.472;2022-12-07T01:59:26;4.60;99.90
8832;DHT22;4452;50.756;4.472;2022-12-07T02:01:54;4.60;99.90
8832;DHT22;4452;50.756;4.472;2022-12-07T02:04:21;4.50;99.90
8832;DHT22;4452;50.756;4.472;2022-12-07T02:06:48;4.50;99.90
8832;DHT22;4452;50.756;4.472;2022-12-07T02:09:15;4.50;99.90
8832;DHT22;4452;50.756;4.472;2022-12-07T02:11:41;4.40;99.90
8832;DHT22;4452;50.756;4.472;2022-12-07T02:14:07;4.40;99.90
8832;DHT22;4452;50.756;4.472;2022-12-07T02:20:02;4.40;99.90
8832;DHT22;4452;50.756;4.472;2022-12-07T02:27:46;4.50;99.90
8832;DHT22;4452;50.756;4.472;2022-12-07T02:30:19;4.50;99.90
8832;DHT22;4452;50.756;4.472;2022-12-07T02:33:08;4.50;99.90
8832;DHT22;4452;50.756;4.472;2022-12-07T02:38:25;4.50;99.90
8832;DHT22;4452;50.756;4.472;2022-12-07T02:40:55;4.60;99.90
8832;DHT22;4452;50.756;4.472;2022-12-07T02:43:24;4.60;99.90
8832;DHT22;4452;50.756;4.472;2022-12-07T02:45:52;4.70;99.90
8832;DHT22;4452;50.756;4.472;2022-12-07T02:48:19;4.70;99.90
8832;DHT22;4452;50.756;4.472;2022-12-07T02:50:53;4.70;99.90
8832;DHT22;4452;50.756;4.472;2022-12-07T02:53:37;4.70;99.90
8832;DHT22;4452;50.756;4.472;2022-12-07T03:06:50;4.80;99.90
8832;DHT22;4452;50.756;4.472;2022-12-07T03:09:37;4.80;99.90
8832;DHT22;4452;50.756;4.472;2022-12-07T03:12:10;4.80;99.90
8832;DHT22;4452;50.756;4.472;2022-12-07T03:15:04;4.80;99.90
8832;DHT22;4452;50.756;4.472;2022-12-07T03:17:34;4.80;99.90
8832;DHT22;4452;50.756;4.472;2022-12-07T03:20:04;4.70;99.90
8832;DHT22;4452;50.756;4.472;2022-12-07T03:22:33;4.70;99.90
8832;DHT22;4452;50.756;4.472;2022-12-07T03:25:07;4.70;99.90
8832;DHT22;4452;50.756;4.472;2022-12-07T03:27:41;4.50;99.90
8832;DHT22;4452;50.756;4.472;2022-12-07T03:30:15;4.50;99.90
8832;DHT22;4452;50.756;4.472;2022-12-07T03:32:55;4.50;99.90
8832;DHT22;4452;50.756;4.472;2022-12-07T03:35:36;4.40;99.90
8832;DHT22;4452;50.756;4.472;2022-12-07T03:38:19;4.40;99.90
8832;DHT22;4452;50.756;4.472;2022-12-07T03:41:22;4.40;99.90
8832;DHT22;4452;50.756;4.472;2022-12-07T03:43:48;4.40;99.90
8832;DHT22;4452;50.756;4.472;2022-12-07T03:46:44;4.40;99.90
8832;DHT22;4452;50.756;4.472;2022-12-07T03:57:35;4.40;99.90
8832;DHT22;4452;50.756;4.472;2022-12-07T04:00:04;4.40;99.90
8832;DHT22;4452;50.756;4.472;2022-12-07T04:02:32;4.30;99.90
8832;DHT22;4452;50.756;4.472;2022-12-07T04:04:58;4.40;99.90
8832;DHT22;4452;50.756;4.472;2022-12-07T04:07:24;4.40;99.90
8832;DHT22;4452;50.756;4.472;2022-12-07T04:09:50;4.30;99.90
8832;DHT22;4452;50.756;4.472;2022-12-07T04:12:15;4.30;99.90
8832;DHT22;4452;50.756;4.472;2022-12-07T04:14:41;4.30;99.90
8832;DHT22;4452;50.756;4.472;2022-12-07T04:17:07;4.20;99.90
8832;DHT22;4452;50.756;4.472;2022-12-07T04:19:34;4.30;99.90
8832;DHT22;4452;50.756;4.472;2022-12-07T04:22:01;4.20;99.90
8832;DHT22;4452;50.756;4.472;2022-12-07T04:24:27;4.10;99.90
8832;DHT22;4452;50.756;4.472;2022-12-07T04:26:53;4.10;99.90
8832;DHT22;4452;50.756;4.472;2022-12-07T04:29:19;4.00;99.90
8832;DHT22;4452;50.756;4.472;2022-12-07T04:31:45;4.00;99.90
8832;DHT22;4452;50.756;4.472;2022-12-07T04:34:12;4.00;99.90
8832;DHT22;4452;50.756;4.472;2022-12-07T04:36:38;4.10;99.90
8832;DHT22;4452;50.756;4.472;2022-12-07T04:39:05;4.10;99.90
8832;DHT22;4452;50.756;4.472;2022-12-07T04:41:31;4.10;99.90
8832;DHT22;4452;50.756;4.472;2022-12-07T04:44:00;4.00;99.90
8832;DHT22;4452;50.756;4.472;2022-12-07T04:46:27;4.10;99.90
8832;DHT22;4452;50.756;4.472;2022-12-07T04:48:54;4.10;99.90
8832;DHT22;4452;50.756;4.472;2022-12-07T04:51:23;4.20;99.90
8832;DHT22;4452;50.756;4.472;2022-12-07T04:53:49;4.20;99.90
8832;DHT22;4452;50.756;4.472;2022-12-07T04:56:15;4.20;99.90
8832;DHT22;4452;50.756;4.472;2022-12-07T04:58:42;4.20;99.90
8832;DHT22;4452;50.756;4.472;2022-12-07T05:01:09;4.20;99.90
8832;DHT22;4452;50.756;4.472;2022-12-07T05:03:38;4.30;99.90
8832;DHT22;4452;50.756;4.472;2022-12-07T05:06:04;4.30;99.90
8832;DHT22;4452;50.756;4.472;2022-12-07T05:08:32;4.30;99.90
8832;DHT22;4452;50.756;4.472;2022-12-07T05:10:58;4.30;99.90
8832;DHT22;4452;50.756;4.472;2022-12-07T05:13:23;4.30;99.90
8832;DHT22;4452;50.756;4.472;2022-12-07T05:15:49;4.30;99.90
8832;DHT22;4452;50.756;4.472;2022-12-07T05:18:15;4.30;99.90
8832;DHT22;4452;50.756;4.472;2022-12-07T05:20:42;4.30;99.90
8832;DHT22;4452;50.756;4.472;2022-12-07T05:23:08;4.30;99.90
8832;DHT22;4452;50.756;4.472;2022-12-07T05:25:33;4.30;99.90
8832;DHT22;4452;50.756;4.472;2022-12-07T05:27:59;4.30;99.90
8832;DHT22;4452;50.756;4.472;2022-12-07T05:30:26;4.30;99.90
8832;DHT22;4452;50.756;4.472;2022-12-07T05:32:51;4.30;99.90
8832;DHT22;4452;50.756;4.472;2022-12-07T05:35:18;4.30;99.90
8832;DHT22;4452;50.756;4.472;2022-12-07T05:37:44;4.30;99.90
8832;DHT22;4452;50.756;4.472;2022-12-07T05:40:11;4.30;99.90
8832;DHT22;4452;50.756;4.472;2022-12-07T05:42:37;4.30;99.90
8832;DHT22;4452;50.756;4.472;2022-12-07T05:45:03;4.30;99.90
8832;DHT22;4452;50.756;4.472;2022-12-07T05:47:28;4.40;99.90
8832;DHT22;4452;50.756;4.472;2022-12-07T05:49:54;4.40;99.90
8832;DHT22;4452;50.756;4.472;2022-12-07T05:52:20;4.40;99.90
8832;DHT22;4452;50.756;4.472;2022-12-07T05:54:45;4.40;99.90
8832;DHT22;4452;50.756;4.472;2022-12-07T05:57:11;4.50;99.90
8832;DHT22;4452;50.756;4.472;2022-12-07T05:59:36;4.50;99.90
8832;DHT22;4452;50.756;4.472;2022-12-07T06:02:08;4.50;99.90
8832;DHT22;4452;50.756;4.472;2022-12-07T06:04:39;4.50;99.90
8832;DHT22;4452;50.756;4.472;2022-12-07T06:07:05;4.50;99.90
8832;DHT22;4452;50.756;4.472;2022-12-07T06:09:32;4.50;99.90
8832;DHT22;4452;50.756;4.472;2022-12-07T06:11:58;4.50;99.90
8832;DHT22;4452;50.756;4.472;2022-12-07T06:14:43;4.50;99.90
8832;DHT22;4452;50.756;4.472;2022-12-07T06:17:09;4.40;99.90
8832;DHT22;4452;50.756;4.472;2022-12-07T06:19:35;4.40;99.90
8832;DHT22;4452;50.756;4.472;2022-12-07T06:22:01;4.40;99.90
8832;DHT22;4452;50.756;4.472;2022-12-07T06:24:28;4.40;99.90
8832;DHT22;4452;50.756;4.472;2022-12-07T06:26:54;4.40;99.90
8832;DHT22;4452;50.756;4.472;2022-12-07T06:29:19;4.40;99.90
8832;DHT22;4452;50.756;4.472;2022-12-07T06:31:45;4.40;99.90
8832;DHT22;4452;50.756;4.472;2022-12-07T06:34:17;4.50;99.90
8832;DHT22;4452;50.756;4.472;2022-12-07T06:36:43;4.40;99.90
8832;DHT22;4452;50.756;4.472;2022-12-07T06:39:09;4.40;99.90
8832;DHT22;4452;50.756;4.472;2022-12-07T06:41:39;4.30;99.90
8832;DHT22;4452;50.756;4.472;2022-12-07T06:44:05;4.40;99.90
8832;DHT22;4452;50.756;4.472;2022-12-07T06:46:32;4.40;99.90
8832;DHT22;4452;50.756;4.472;2022-12-07T06:49:01;4.40;99.90
8832;DHT22;4452;50.756;4.472;2022-12-07T06:51:26;4.30;99.90
8832;DHT22;4452;50.756;4.472;2022-12-07T06:53:52;4.30;99.90
8832;DHT22;4452;50.756;4.472;2022-12-07T06:56:18;4.30;99.90
8832;DHT22;4452;50.756;4.472;2022-12-07T06:58:43;4.30;99.90
8832;DHT22;4452;50.756;4.472;2022-12-07T07:01:14;4.40;99.90
8832;DHT22;4452;50.756;4.472;2022-12-07T07:03:40;4.40;99.90
8832;DHT22;4452;50.756;4.472;2022-12-07T07:06:07;4.40;99.90
8832;DHT22;4452;50.756;4.472;2022-12-07T07:08:34;4.40;99.90
8832;DHT22;4452;50.756;4.472;2022-12-07T07:11:00;4.50;99.90
8832;DHT22;4452;50.756;4.472;2022-12-07T07:13:26;4.50;99.90
8832;DHT22;4452;50.756;4.472;2022-12-07T07:15:51;4.60;99.90
8832;DHT22;4452;50.756;4.472;2022-12-07T07:18:17;4.50;99.90
8832;DHT22;4452;50.756;4.472;2022-12-07T07:20:44;4.60;99.90
8832;DHT22;4452;50.756;4.472;2022-12-07T07:23:11;4.60;99.90
8832;DHT22;4452;50.756;4.472;2022-12-07T07:25:39;4.60;99.90
8832;DHT22;4452;50.756;4.472;2022-12-07T07:28:07;4.60;99.90
8832;DHT22;4452;50.756;4.472;2022-12-07T07:30:39;4.60;99.90
8832;DHT22;4452;50.756;4.472;2022-12-07T07:33:07;4.60;99.90
8832;DHT22;4452;50.756;4.472;2022-12-07T07:35:34;4.50;99.90
8832;DHT22;4452;50.756;4.472;2022-12-07T07:38:00;4.50;99.90
8832;DHT22;4452;50.756;4.472;2022-12-07T07:40:26;4.40;99.90
8832;DHT22;4452;50.756;4.472;2022-12-07T07:42:53;4.40;99.90
8832;DHT22;4452;50.756;4.472;2022-12-07T07:45:20;4.40;99.90
8832;DHT22;4452;50.756;4.472;2022-12-07T07:47:47;4.40;99.90
8832;DHT22;4452;50.756;4.472;2022-12-07T07:50:13;4.40;99.90
8832;DHT22;4452;50.756;4.472;2022-12-07T07:52:39;4.50;99.90
8832;DHT22;4452;50.756;4.472;2022-12-07T07:55:05;4.50;99.90
8832;DHT22;4452;50.756;4.472;2022-12-07T07:57:32;4.50;99.90
8832;DHT22;4452;50.756;4.472;2022-12-07T07:59:58;4.50;99.90
8832;DHT22;4452;50.756;4.472;2022-12-07T08:02:24;4.60;99.90
8832;DHT22;4452;50.756;4.472;2022-12-07T08:04:49;4.60;99.90
8832;DHT22;4452;50.756;4.472;2022-12-07T08:07:15;4.50;99.90
8832;DHT22;4452;50.756;4.472;2022-12-07T08:09:41;4.50;99.90
8832;DHT22;4452;50.756;4.472;2022-12-07T08:12:07;4.50;99.90
8832;DHT22;4452;50.756;4.472;2022-12-07T08:14:33;4.50;99.90
8832;DHT22;4452;50.756;4.472;2022-12-07T08:17:00;4.50;99.90
8832;DHT22;4452;50.756;4.472;2022-12-07T08:19:29;4.40;99.90
8832;DHT22;4452;50.756;4.472;2022-12-07T08:21:57;4.50;99.90
8832;DHT22;4452;50.756;4.472;2022-12-07T08:24:24;4.50;99.90
8832;DHT22;4452;50.756;4.472;2022-12-07T08:26:50;4.40;99.90
8832;DHT22;4452;50.756;4.472;2022-12-07T08:29:16;4.40;99.90
8832;DHT22;4452;50.756;4.472;2022-12-07T08:31:42;4.50;99.90
8832;DHT22;4452;50.756;4.472;2022-12-07T08:34:10;4.50;99.90
8832;DHT22;4452;50.756;4.472;2022-12-07T08:36:37;4.50;99.90
8832;DHT22;4452;50.756;4.472;2022-12-07T08:39:03;4.60;99.90
8832;DHT22;4452;50.756;4.472;2022-12-07T08:41:28;4.60;99.90
8832;DHT22;4452;50.756;4.472;2022-12-07T08:43:54;4.70;99.90
8832;DHT22;4452;50.756;4.472;2022-12-07T08:46:23;4.80;99.90
8832;DHT22;4452;50.756;4.472;2022-12-07T08:48:52;4.80;99.90
8832;DHT22;4452;50.756;4.472;2022-12-07T08:51:19;4.90;99.90
8832;DHT22;4452;50.756;4.472;2022-12-07T08:53:45;4.90;99.90
8832;DHT22;4452;50.756;4.472;2022-12-07T08:56:11;5.00;99.90
8832;DHT22;4452;50.756;4.472;2022-12-07T08:58:38;5.00;99.90
8832;DHT22;4452;50.756;4.472;2022-12-07T09:01:04;5.10;99.90
8832;DHT22;4452;50.756;4.472;2022-12-07T09:03:30;5.10;99.90
8832;DHT22;4452;50.756;4.472;2022-12-07T09:05:57;5.10;99.90
8832;DHT22;4452;50.756;4.472;2022-12-07T09:08:26;5.10;99.90
8832;DHT22;4452;50.756;4.472;2022-12-07T09:10:54;5.10;99.90
8832;DHT22;4452;50.756;4.472;2022-12-07T09:13:20;5.10;99.90
8832;DHT22;4452;50.756;4.472;2022-12-07T09:15:45;5.20;99.90
8832;DHT22;4452;50.756;4.472;2022-12-07T09:18:11;5.20;99.90
8832;DHT22;4452;50.756;4.472;2022-12-07T09:20:37;5.20;99.90
8832;DHT22;4452;50.756;4.472;2022-12-07T09:23:04;5.30;99.90
8832;DHT22;4452;50.756;4.472;2022-12-07T09:25:30;5.40;99.90
8832;DHT22;4452;50.756;4.472;2022-12-07T09:27:57;5.50;99.90
8832;DHT22;4452;50.756;4.472;2022-12-07T09:30:23;5.60;99.90
8832;DHT22;4452;50.756;4.472;2022-12-07T09:32:49;5.80;99.90
8832;DHT22;4452;50.756;4.472;2022-12-07T09:35:15;5.90;99.90
8832;DHT22;4452;50.756;4.472;2022-12-07T09:37:40;6.00;99.90
8832;DHT22;4452;50.756;4.472;2022-12-07T09:40:06;6.00;99.90
8832;DHT22;4452;50.756;4.472;2022-12-07T09:42:38;6.00;99.90
8832;DHT22;4452;50.756;4.472;2022-12-07T09:45:06;6.00;99.90
8832;DHT22;4452;50.756;4.472;2022-12-07T09:47:33;5.90;99.90
8832;DHT22;4452;50.756;4.472;2022-12-07T09:50:11;6.10;99.90
8832;DHT22;4452;50.756;4.472;2022-12-07T09:52:40;6.10;99.90
8832;DHT22;4452;50.756;4.472;2022-12-07T09:55:12;6.10;99.90
8832;DHT22;4452;50.756;4.472;2022-12-07T09:57:38;6.30;99.90
8832;DHT22;4452;50.756;4.472;2022-12-07T10:00:10;6.30;99.90
8832;DHT22;4452;50.756;4.472;2022-12-07T10:02:53;6.40;99.90
8832;DHT22;4452;50.756;4.472;2022-12-07T10:05:36;6.40;99.90
8832;DHT22;4452;50.756;4.472;2022-12-07T10:08:03;6.60;99.90
8832;DHT22;4452;50.756;4.472;2022-12-07T10:10:34;6.50;99.90
8832;DHT22;4452;50.756;4.472;2022-12-07T10:13:04;6.70;99.90
8832;DHT22;4452;50.756;4.472;2022-12-07T10:15:49;6.70;99.90
8832;DHT22;4452;50.756;4.472;2022-12-07T10:18:34;6.70;99.90
8832;DHT22;4452;50.756;4.472;2022-12-07T10:21:17;6.60;99.90
8832;DHT22;4452;50.756;4.472;2022-12-07T10:29:30;6.60;99.90
8832;DHT22;4452;50.756;4.472;2022-12-07T10:32:05;6.60;99.90
8832;DHT22;4452;50.756;4.472;2022-12-07T10:34:34;6.70;99.90
8832;DHT22;4452;50.756;4.472;2022-12-07T10:37:27;6.80;99.90
8832;DHT22;4452;50.756;4.472;2022-12-07T10:39:55;6.80;99.90
8832;DHT22;4452;50.756;4.472;2022-12-07T10:45:13;6.80;99.90
8832;DHT22;4452;50.756;4.472;2022-12-07T10:48:16;6.80;99.90
8832;DHT22;4452;50.756;4.472;2022-12-07T10:51:06;6.70;99.90
8832;DHT22;4452;50.756;4.472;2022-12-07T10:54:09;6.70;99.90
8832;DHT22;4452;50.756;4.472;2022-12-07T10:57:31;6.80;99.90
8832;DHT22;4452;50.756;4.472;2022-12-07T10:59:50;6.90;99.90
8832;DHT22;4452;50.756;4.472;2022-12-07T11:02:25;7.00;99.90
8832;DHT22;4452;50.756;4.472;2022-12-07T11:10:31;6.90;99.90
8832;DHT22;4452;50.756;4.472;2022-12-07T11:13:29;7.00;99.90
8832;DHT22;4452;50.756;4.472;2022-12-07T11:18:57;7.00;99.90
8832;DHT22;4452;50.756;4.472;2022-12-07T11:21:48;7.00;99.90
8832;DHT22;4452;50.756;4.472;2022-12-07T11:24:19;7.10;99.90
8832;DHT22;4452;50.756;4.472;2022-12-07T11:30:08;7.20;99.90
8832;DHT22;4452;50.756;4.472;2022-12-07T11:32:44;7.30;99.90
8832;DHT22;4452;50.756;4.472;2022-12-07T11:37:45;7.20;99.90
8832;DHT22;4452;50.756;4.472;2022-12-07T11:42:53;7.30;99.90
8832;DHT22;4452;50.756;4.472;2022-12-07T11:45:31;7.10;99.90
8832;DHT22;4452;50.756;4.472;2022-12-07T11:48:02;7.20;99.90
8832;DHT22;4452;50.756;4.472;2022-12-07T11:50:54;7.10;99.90
8832;DHT22;4452;50.756;4.472;2022-12-07T11:53:26;7.00;99.90
8832;DHT22;4452;50.756;4.472;2022-12-07T11:56:04;6.90;99.90
8832;DHT22;4452;50.756;4.472;2022-12-07T12:04:34;6.60;99.90
8832;DHT22;4452;50.756;4.472;2022-12-07T12:07:02;6.70;99.90
8832;DHT22;4452;50.756;4.472;2022-12-07T12:09:49;6.70;99.90
8832;DHT22;4452;50.756;4.472;2022-12-07T12:12:43;6.60;99.90
8832;DHT22;4452;50.756;4.472;2022-12-07T12:20:55;6.80;99.90
8832;DHT22;4452;50.756;4.472;2022-12-07T12:23:29;7.00;99.90
8832;DHT22;4452;50.756;4.472;2022-12-07T12:26:05;7.00;99.90
8832;DHT22;4452;50.756;4.472;2022-12-07T12:34:02;7.60;99.90
8832;DHT22;4452;50.756;4.472;2022-12-07T12:47:04;7.40;99.90
8832;DHT22;4452;50.756;4.472;2022-12-07T12:49:32;7.20;99.90
8832;DHT22;4452;50.756;4.472;2022-12-07T12:54:38;7.10;99.90
8832;DHT22;4452;50.756;4.472;2022-12-07T12:57:27;7.10;99.90
8832;DHT22;4452;50.756;4.472;2022-12-07T13:02:32;7.10;99.90
8832;DHT22;4452;50.756;4.472;2022-12-07T13:04:58;7.20;99.90
8832;DHT22;4452;50.756;4.472;2022-12-07T13:15:52;7.40;99.90
8832;DHT22;4452;50.756;4.472;2022-12-07T13:20:57;7.50;99.90
8832;DHT22;4452;50.756;4.472;2022-12-07T13:31:49;7.40;99.90
8832;DHT22;4452;50.756;4.472;2022-12-07T13:34:41;7.40;99.90
8832;DHT22;4452;50.756;4.472;2022-12-07T13:37:26;7.30;99.90
8832;DHT22;4452;50.756;4.472;2022-12-07T13:39:58;7.20;99.90
8832;DHT22;4452;50.756;4.472;2022-12-07T13:42:29;7.10;99.90
8832;DHT22;4452;50.756;4.472;2022-12-07T13:45:17;7.10;99.90
8832;DHT22;4452;50.756;4.472;2022-12-07T13:47:49;7.00;99.90
8832;DHT22;4452;50.756;4.472;2022-12-07T13:50:26;7.20;99.90
8832;DHT22;4452;50.756;4.472;2022-12-07T13:52:55;7.20;99.90
8832;DHT22;4452;50.756;4.472;2022-12-07T13:55:21;7.30;99.90
8832;DHT22;4452;50.756;4.472;2022-12-07T13:57:49;7.30;99.90
8832;DHT22;4452;50.756;4.472;2022-12-07T14:00:26;7.30;99.90
8832;DHT22;4452;50.756;4.472;2022-12-07T14:05:29;7.10;99.90
8832;DHT22;4452;50.756;4.472;2022-12-07T14:08:01;7.10;99.90
8832;DHT22;4452;50.756;4.472;2022-12-07T14:10:29;7.10;99.90
8832;DHT22;4452;50.756;4.472;2022-12-07T14:12:56;7.10;99.90
8832;DHT22;4452;50.756;4.472;2022-12-07T14:15:28;7.00;99.90
8832;DHT22;4452;50.756;4.472;2022-12-07T14:17:55;7.00;99.90
8832;DHT22;4452;50.756;4.472;2022-12-07T14:20:37;7.00;99.90
8832;DHT22;4452;50.756;4.472;2022-12-07T14:23:06;7.00;99.90
8832;DHT22;4452;50.756;4.472;2022-12-07T14:25:51;7.00;99.90
8832;DHT22;4452;50.756;4.472;2022-12-07T14:28:29;7.00;99.90
8832;DHT22;4452;50.756;4.472;2022-12-07T14:30:59;7.00;99.90
8832;DHT22;4452;50.756;4.472;2022-12-07T14:33:27;6.90;99.90
8832;DHT22;4452;50.756;4.472;2022-12-07T14:35:56;6.90;99.90
8832;DHT22;4452;50.756;4.472;2022-12-07T14:38:24;6.80;99.90
8832;DHT22;4452;50.756;4.472;2022-12-07T14:40:53;6.70;99.90
8832;DHT22;4452;50.756;4.472;2022-12-07T14:43:20;6.70;99.90
8832;DHT22;4452;50.756;4.472;2022-12-07T14:45:46;6.60;99.90
8832;DHT22;4452;50.756;4.472;2022-12-07T14:48:14;6.70;99.90
8832;DHT22;4452;50.756;4.472;2022-12-07T14:50:51;6.60;99.90
8832;DHT22;4452;50.756;4.472;2022-12-07T14:53:21;6.60;99.90
8832;DHT22;4452;50.756;4.472;2022-12-07T14:55:49;6.40;99.90
8832;DHT22;4452;50.756;4.472;2022-12-07T14:58:16;6.30;99.90
8832;DHT22;4452;50.756;4.472;2022-12-07T15:00:42;6.10;99.90
8832;DHT22;4452;50.756;4.472;2022-12-07T15:03:08;6.00;99.90
8832;DHT22;4452;50.756;4.472;2022-12-07T15:05:33;6.00;99.90
8832;DHT22;4452;50.756;4.472;2022-12-07T15:08:00;5.90;99.90
8832;DHT22;4452;50.756;4.472;2022-12-07T15:10:29;5.80;99.90
8832;DHT22;4452;50.756;4.472;2022-12-07T15:13:02;5.80;99.90
8832;DHT22;4452;50.756;4.472;2022-12-07T15:15:51;5.70;99.90
8832;DHT22;4452;50.756;4.472;2022-12-07T15:18:17;5.60;99.90
8832;DHT22;4452;50.756;4.472;2022-12-07T15:20:43;5.60;99.90
8832;DHT22;4452;50.756;4.472;2022-12-07T15:23:10;5.60;99.90
8832;DHT22;4452;50.756;4.472;2022-12-07T15:25:37;5.60;99.90
8832;DHT22;4452;50.756;4.472;2022-12-07T15:28:05;5.50;99.90
8832;DHT22;4452;50.756;4.472;2022-12-07T15:30:30;5.60;99.90
8832;DHT22;4452;50.756;4.472;2022-12-07T15:32:56;5.50;99.90
8832;DHT22;4452;50.756;4.472;2022-12-07T15:35:22;5.50;99.90
8832;DHT22;4452;50.756;4.472;2022-12-07T15:37:47;5.50;99.90
8832;DHT22;4452;50.756;4.472;2022-12-07T15:40:14;5.40;99.90
8832;DHT22;4452;50.756;4.472;2022-12-07T15:42:40;5.50;99.90
8832;DHT22;4452;50.756;4.472;2022-12-07T15:45:07;5.40;99.90
8832;DHT22;4452;50.756;4.472;2022-12-07T15:47:43;5.40;99.90
8832;DHT22;4452;50.756;4.472;2022-12-07T15:50:15;5.40;99.90
8832;DHT22;4452;50.756;4.472;2022-12-07T15:52:42;5.40;99.90
8832;DHT22;4452;50.756;4.472;2022-12-07T15:55:09;5.40;99.90
8832;DHT22;4452;50.756;4.472;2022-12-07T15:57:36;5.40;99.90
8832;DHT22;4452;50.756;4.472;2022-12-07T16:00:04;5.40;99.90
8832;DHT22;4452;50.756;4.472;2022-12-07T16:02:30;5.40;99.90
8832;DHT22;4452;50.756;4.472;2022-12-07T16:04:56;5.40;99.90
8832;DHT22;4452;50.756;4.472;2022-12-07T16:07:22;5.40;99.90
8832;DHT22;4452;50.756;4.472;2022-12-07T16:09:48;5.40;99.90
8832;DHT22;4452;50.756;4.472;2022-12-07T16:12:15;5.40;99.90
8832;DHT22;4452;50.756;4.472;2022-12-07T16:14:41;5.40;99.90
8832;DHT22;4452;50.756;4.472;2022-12-07T16:17:09;5.40;99.90
8832;DHT22;4452;50.756;4.472;2022-12-07T16:19:35;5.40;99.90
8832;DHT22;4452;50.756;4.472;2022-12-07T16:22:06;5.40;99.90
8832;DHT22;4452;50.756;4.472;2022-12-07T16:24:40;5.40;99.90
8832;DHT22;4452;50.756;4.472;2022-12-07T16:27:05;5.40;99.90
8832;DHT22;4452;50.756;4.472;2022-12-07T16:29:31;5.30;99.90
8832;DHT22;4452;50.756;4.472;2022-12-07T16:31:57;5.30;99.90
8832;DHT22;4452;50.756;4.472;2022-12-07T16:34:22;5.30;99.90
8832;DHT22;4452;50.756;4.472;2022-12-07T16:36:48;5.30;99.90
8832;DHT22;4452;50.756;4.472;2022-12-07T16:39:14;5.30;99.90
8832;DHT22;4452;50.756;4.472;2022-12-07T16:41:39;5.30;99.90
8832;DHT22;4452;50.756;4.472;2022-12-07T16:44:07;5.30;99.90
8832;DHT22;4452;50.756;4.472;2022-12-07T16:46:33;5.30;99.90
8832;DHT22;4452;50.756;4.472;2022-12-07T16:49:00;5.30;99.90
8832;DHT22;4452;50.756;4.472;2022-12-07T16:51:27;5.30;99.90
8832;DHT22;4452;50.756;4.472;2022-12-07T16:53:53;5.30;99.90
8832;DHT22;4452;50.756;4.472;2022-12-07T16:56:19;5.30;99.90
8832;DHT22;4452;50.756;4.472;2022-12-07T16:58:45;5.30;99.90
8832;DHT22;4452;50.756;4.472;2022-12-07T17:01:17;5.20;99.90
8832;DHT22;4452;50.756;4.472;2022-12-07T17:03:44;5.20;99.90
8832;DHT22;4452;50.756;4.472;2022-12-07T17:06:14;5.20;99.90
8832;DHT22;4452;50.756;4.472;2022-12-07T17:08:40;5.20;99.90
8832;DHT22;4452;50.756;4.472;2022-12-07T17:11:32;5.20;99.90
8832;DHT22;4452;50.756;4.472;2022-12-07T17:13:58;5.20;99.90
8832;DHT22;4452;50.756;4.472;2022-12-07T17:16:42;5.20;99.90
8832;DHT22;4452;50.756;4.472;2022-12-07T17:19:11;5.20;99.90
8832;DHT22;4452;50.756;4.472;2022-12-07T17:21:37;5.20;99.90
8832;DHT22;4452;50.756;4.472;2022-12-07T17:24:06;5.20;99.90
8832;DHT22;4452;50.756;4.472;2022-12-07T17:26:35;5.20;99.90
8832;DHT22;4452;50.756;4.472;2022-12-07T17:29:05;5.20;99.90
8832;DHT22;4452;50.756;4.472;2022-12-07T17:31:33;5.20;99.90
8832;DHT22;4452;50.756;4.472;2022-12-07T17:34:01;5.20;99.90
8832;DHT22;4452;50.756;4.472;2022-12-07T17:36:32;5.20;99.90
8832;DHT22;4452;50.756;4.472;2022-12-07T17:38:59;5.20;99.90
8832;DHT22;4452;50.756;4.472;2022-12-07T17:41:28;5.20;99.90
8832;DHT22;4452;50.756;4.472;2022-12-07T17:44:17;5.20;99.90
8832;DHT22;4452;50.756;4.472;2022-12-07T17:46:45;5.20;99.90
8832;DHT22;4452;50.756;4.472;2022-12-07T17:49:11;5.20;99.90
8832;DHT22;4452;50.756;4.472;2022-12-07T17:51:37;5.20;99.90
8832;DHT22;4452;50.756;4.472;2022-12-07T17:54:21;5.20;99.90
8832;DHT22;4452;50.756;4.472;2022-12-07T17:56:48;5.10;99.90
8832;DHT22;4452;50.756;4.472;2022-12-07T17:59:14;5.10;99.90
8832;DHT22;4452;50.756;4.472;2022-12-07T18:01:40;5.10;99.90
8832;DHT22;4452;50.756;4.472;2022-12-07T18:04:06;5.10;99.90
8832;DHT22;4452;50.756;4.472;2022-12-07T18:06:32;5.10;99.90
8832;DHT22;4452;50.756;4.472;2022-12-07T18:08:58;5.10;99.90
8832;DHT22;4452;50.756;4.472;2022-12-07T18:11:23;5.10;99.90
8832;DHT22;4452;50.756;4.472;2022-12-07T18:13:49;5.10;99.90
8832;DHT22;4452;50.756;4.472;2022-12-07T18:16:18;5.10;99.90
8832;DHT22;4452;50.756;4.472;2022-12-07T18:18:44;5.20;99.90
8832;DHT22;4452;50.756;4.472;2022-12-07T18:21:17;5.20;99.90
8832;DHT22;4452;50.756;4.472;2022-12-07T18:23:44;5.20;99.90
8832;DHT22;4452;50.756;4.472;2022-12-07T18:26:10;5.20;99.90